Portada
METAR-TAF:

METAR-TAF

Aeroports :

Mountain Empire Airport

Marion-Wytheville, Virgínia, Estats Units d'Amèrica

latitud: 36-54N, longitud: 081-21W, altitud: 780 m

Observació

L'informe es va fer fa 15 minuts, a les 00:15 UTC
Vent calma
Temperatura 21°C
Humitat 100%
Pressió 1020 hPa
Visibilitat: 8.0 km
Núvols disperses a una alçada de 2700 ft
Cel ennuvolat a una alçada de 7500 ft
Cel cobert a una alçada de 10000 ft
pluja

METAR: KMKJ 120015Z AUTO 00000KT 5SM -RA SCT027 BKN075 OVC100 21/21 A3012 RMK AO2 T02100205

Hora: 20:30 (00:30 UTC)


TAF: manca

Observacions i pronòstics meteorològics de més de 4000 aeroports (METAR i TAF).

Les estacions disponibles són els punts grocs i vermells al mapa.

Posi el ratolí al punt desitjat per veure el nom de l'estació.

Feu clic per veure les observacions i els pronòstics meteorològics.

Per canviar el mapa: feu clic els botons verds amb una creu de color negre per apropar; al botó verd amb un guió per allunyar la imatge; o en les fletxes verdes per a mapes adjacents.


METAR-TAF: